Abraham Lincoln Capital Airport Airport (SPI)

 

Airport Diagram
Current Weather/Forecast (IFR Conditions)
METAR KSPI 281952Z 07007KT 2SM BR OVC005 11/10 A2943 RMK AO2 SLP965 T01060100
TAF KSPI 281720Z 2818/2918 08012KT 4SM -SHRA BR OVC006 FM282300 01007KT 3SM -SHRA BR OVC005 FM291500 35014G21KT 4SM -RA OVC009

All Charts
General
Chart Name Download
AIRPORT DIAGRAM
TAKEOFF MINIMUMS
ALTERNATE MINIMUMS
RADAR MINIMUMS
HOT SPOT

Approaches
Chart Name Download
ILS OR LOC RWY 04
ILS OR LOC RWY 22
ILS OR LOC RWY 31
RNAV (GPS) RWY 04
RNAV (GPS) RWY 13
RNAV (GPS) RWY 22
RNAV (GPS) RWY 31
VOR/DME RWY 13
VOR/DME RWY 22
VOR/DME RWY 31
VOR RWY 04